Acala del Rio, Spain
Current Conditions -  °F | °C
As of 7:00 PM on Thursday 23 Oct 2014 (Local Time) from LEZL Reporting Station
Clear Clear  
Wind Chill: 81°   Ceiling: Unl
Heat Index: 81°   Visibility: 6mi
Dew Point: 43°   Wind: 5mph
Humidity: 26%   Direction: 60°ENE
Pressure: 30.03"   Gusts: NA
Location:  37.52°N, 5.98°W
Report Text: LEZL 231700Z 06004KT CAVOK 27/06 Q1017 NOSIG
Loading
Personal Weather Stations






























Interactive Weather Map
Tropical Storm Tracking
New forecast layout! Learn more

10-Day Weather Forecast

Advertisements
Track Severe Weather on mobile